Time;durP1;ratioP1;P1;durP2;ratioP2;P2;SDS_P1;SDS_P2;PMS_P1;PMS_P2;Temp;Humidity;BMP_temperature;BMP_pressure;BME280_temperature;BME280_humidity;BME280_pressure;Samples;Min_cycle;Max_cycle;Signal;HPM_P1;HPM_P2
2023/06/17 00:01:33;;;;;;;17.67;8.05;;;15.00;99.90;;;;;;5116239;27;20035;-69
2023/06/17 00:03:59;;;;;;;13.88;8.15;;;15.00;99.90;;;;;;5132368;27;20043;-70
2023/06/17 00:06:26;;;;;;;11.75;7.57;;;15.00;99.90;;;;;;5133900;27;20130;-70
2023/06/17 00:08:54;;;;;;;13.77;8.48;;;15.10;99.90;;;;;;5115673;27;20096;-70
2023/06/17 00:11:20;;;;;;;13.52;8.52;;;15.10;99.90;;;;;;5136017;27;20043;-70
2023/06/17 00:13:47;;;;;;;12.32;7.85;;;15.00;99.90;;;;;;5102227;27;20100;-69
2023/06/17 00:16:13;;;;;;;13.63;8.95;;;15.00;99.90;;;;;;5118410;27;20087;-71
2023/06/17 00:18:41;;;;;;;16.00;8.68;;;14.90;99.90;;;;;;5117804;27;20043;-70
2023/06/17 00:21:06;;;;;;;16.40;8.38;;;14.90;99.90;;;;;;5118789;27;20402;-70
2023/06/17 00:23:32;;;;;;;15.80;9.43;;;14.80;99.90;;;;;;5135358;27;20038;-70
2023/06/17 00:25:59;;;;;;;14.63;8.90;;;14.80;99.90;;;;;;5115406;27;20050;-69
2023/06/17 00:28:25;;;;;;;16.15;9.43;;;14.80;99.90;;;;;;5115627;27;20050;-70
2023/06/17 00:30:50;;;;;;;15.77;9.70;;;14.80;99.90;;;;;;5115197;27;20043;-70
2023/06/17 00:33:16;;;;;;;17.85;9.50;;;14.80;99.90;;;;;;5133385;27;20039;-70
2023/06/17 00:35:42;;;;;;;16.58;9.68;;;14.80;99.90;;;;;;5114117;27;20043;-71
2023/06/17 00:38:08;;;;;;;21.00;9.40;;;14.70;99.90;;;;;;5097252;27;20078;-71
2023/06/17 00:40:34;;;;;;;16.40;9.40;;;14.70;99.90;;;;;;5115839;27;20043;-71
2023/06/17 00:43:00;;;;;;;14.40;9.37;;;14.70;99.90;;;;;;5133247;27;20085;-71
2023/06/17 00:45:25;;;;;;;14.55;9.18;;;14.70;99.90;;;;;;5133732;27;20071;-71
2023/06/17 00:47:52;;;;;;;17.58;9.07;;;14.60;99.90;;;;;;5133309;27;20082;-75
2023/06/17 00:50:18;;;;;;;17.30;9.73;;;14.60;99.90;;;;;;5115429;27;20043;-71
2023/06/17 00:52:45;;;;;;;;;;;14.60;99.90;;;;;;5099381;27;20479;-71
2023/06/17 00:55:11;;;;;;;16.33;9.82;;;14.60;99.90;;;;;;5113032;28;19919;-71
2023/06/17 00:57:38;;;;;;;15.90;11.03;;;14.60;99.90;;;;;;5095165;28;20047;-71
2023/06/17 01:00:09;;;;;;;;;;;14.60;99.90;;;;;;5102416;28;20367;-71
2023/06/17 01:02:39;;;;;;;15.75;10.15;;;14.60;99.90;;;;;;5133316;28;20355;-71
2023/06/17 01:05:12;;;;;;;20.40;11.52;;;14.60;99.90;;;;;;5132883;28;20043;-70
2023/06/17 01:07:46;;;;;;;17.63;11.15;;;14.50;99.90;;;;;;5116453;28;20087;-72
2023/06/17 01:10:17;;;;;;;23.55;11.35;;;14.50;99.90;;;;;;5135920;27;20047;-71
2023/06/17 01:12:44;;;;;;;19.92;12.57;;;14.50;99.90;;;;;;5119745;27;20039;-70
2023/06/17 01:15:13;;;;;;;;;;;14.40;99.90;;;;;;5119574;27;20448;-69
2023/06/17 01:17:43;;;;;;;19.85;11.73;;;14.40;99.90;;;;;;5137293;27;19919;-71
2023/06/17 01:20:12;;;;;;;18.70;10.68;;;14.40;99.90;;;;;;5119424;27;20047;-71
2023/06/17 01:22:39;;;;;;;19.30;11.52;;;14.30;99.90;;;;;;5102155;27;20085;-70
2023/06/17 01:25:05;;;;;;;18.45;11.57;;;14.30;99.90;;;;;;5136947;27;20503;-70
2023/06/17 01:27:33;;;;;;;20.70;11.82;;;14.20;99.90;;;;;;5119282;27;20039;-71
2023/06/17 01:29:59;;;;;;;20.30;12.70;;;14.20;99.90;;;;;;5118564;27;20107;-70
2023/06/17 01:32:25;;;;;;;19.10;12.00;;;14.10;99.90;;;;;;5119338;27;20105;-71
2023/06/17 01:34:50;;;;;;;19.83;12.27;;;14.00;99.90;;;;;;5102241;27;20069;-70
2023/06/17 01:37:23;;;;;;;19.80;11.77;;;14.00;99.90;;;;;;5136936;27;20440;-71
2023/06/17 01:39:51;;;;;;;19.35;12.73;;;14.00;99.90;;;;;;5119126;27;20073;-71
2023/06/17 01:42:31;;;;;;;20.83;12.27;;;14.00;99.90;;;;;;5116650;27;20106;-70
2023/06/17 01:44:59;;;;;;;22.83;13.02;;;13.90;99.90;;;;;;5137299;27;20043;-71
2023/06/17 01:47:25;;;;;;;19.92;12.73;;;13.80;99.90;;;;;;5118926;27;20130;-70
2023/06/17 01:49:51;;;;;;;21.95;13.68;;;13.80;99.90;;;;;;5137101;27;20407;-71
2023/06/17 01:52:16;;;;;;;25.75;13.93;;;13.70;99.90;;;;;;5118305;27;20054;-71
2023/06/17 01:54:42;;;;;;;26.77;14.73;;;13.70;99.90;;;;;;5135139;27;20156;-70
2023/06/17 01:57:08;;;;;;;20.35;13.90;;;13.60;99.90;;;;;;5114429;28;20062;-71
2023/06/17 01:59:34;;;;;;;22.73;14.60;;;13.60;99.90;;;;;;5115331;28;20411;-71
2023/06/17 02:02:00;;;;;;;22.75;14.57;;;13.50;99.90;;;;;;5114953;28;20369;-70
2023/06/17 02:04:25;;;;;;;26.92;16.75;;;13.50;99.90;;;;;;5113858;28;20058;-71
2023/06/17 02:06:51;;;;;;;22.80;15.02;;;13.30;99.90;;;;;;5119842;28;20043;-70
2023/06/17 02:09:18;;;;;;;24.98;15.02;;;13.20;99.90;;;;;;5117144;28;20047;-71
2023/06/17 02:11:43;;;;;;;26.02;16.05;;;13.10;99.90;;;;;;5098097;28;20051;-71
2023/06/17 02:14:09;;;;;;;28.25;17.17;;;13.10;99.90;;;;;;5114640;28;20101;-70
2023/06/17 02:16:39;;;;;;;25.02;18.02;;;13.00;99.90;;;;;;5098137;28;20055;-71
2023/06/17 02:19:05;;;;;;;26.23;16.67;;;12.90;99.90;;;;;;5115639;28;20055;-70
2023/06/17 02:21:31;;;;;;;27.23;18.20;;;12.90;99.90;;;;;;5113422;28;20518;-71
2023/06/17 02:23:56;;;;;;;27.00;17.30;;;12.80;99.90;;;;;;5116139;28;20044;-70
2023/06/17 02:26:22;;;;;;;25.75;16.70;;;12.80;99.90;;;;;;5114015;28;20043;-72
2023/06/17 02:28:48;;;;;;;25.97;17.20;;;12.70;99.90;;;;;;5098105;28;20047;-71
2023/06/17 02:31:14;;;;;;;29.20;18.38;;;12.70;99.90;;;;;;5080561;28;20502;-71
2023/06/17 02:33:40;;;;;;;31.55;18.85;;;12.70;99.90;;;;;;5114613;28;20040;-70
2023/06/17 02:36:06;;;;;;;29.42;18.63;;;12.60;99.90;;;;;;5115177;28;20074;-72
2023/06/17 02:38:32;;;;;;;27.20;17.57;;;12.60;99.90;;;;;;5114425;28;20047;-70
2023/06/17 02:40:58;;;;;;;30.45;18.02;;;12.60;99.90;;;;;;5114027;28;20053;-72
2023/06/17 02:43:24;;;;;;;35.20;19.27;;;12.60;99.90;;;;;;5114054;28;20052;-70
2023/06/17 02:45:51;;;;;;;34.45;20.38;;;12.60;99.90;;;;;;5097292;28;20047;-71
2023/06/17 02:48:17;;;;;;;;;;;12.70;99.90;;;;;;5097564;28;20087;-71
2023/06/17 02:50:43;;;;;;;33.13;18.80;;;12.80;99.90;;;;;;5115549;27;19982;-71
2023/06/17 02:53:08;;;;;;;30.55;17.92;;;12.90;99.90;;;;;;5114891;28;20043;-71
2023/06/17 02:55:34;;;;;;;27.95;17.60;;;13.10;99.90;;;;;;5115132;28;20051;-71
2023/06/17 02:58:00;;;;;;;34.92;19.77;;;13.20;99.90;;;;;;5135880;27;20047;-70
2023/06/17 03:00:26;;;;;;;35.27;19.87;;;13.40;99.90;;;;;;5135300;27;20456;-70
2023/06/17 03:02:52;;;;;;;38.17;21.05;;;13.50;99.90;;;;;;5117145;27;20313;-71
2023/06/17 03:05:18;;;;;;;36.03;21.40;;;13.50;99.90;;;;;;5135117;27;20414;-70
2023/06/17 03:07:45;;;;;;;32.90;21.63;;;13.40;99.90;;;;;;5117465;27;20051;-70
2023/06/17 03:10:11;;;;;;;31.67;20.48;;;13.40;99.90;;;;;;5116766;27;20050;-70
2023/06/17 03:12:37;;;;;;;30.75;20.73;;;13.50;99.90;;;;;;5135769;27;20050;-71
2023/06/17 03:15:03;;;;;;;32.25;20.17;;;13.50;99.90;;;;;;5117106;27;20069;-70
2023/06/17 03:17:28;;;;;;;32.47;20.73;;;13.50;99.90;;;;;;5096536;28;20049;-71
2023/06/17 03:19:56;;;;;;;36.45;20.90;;;13.50;99.90;;;;;;5096563;28;20134;-72
2023/06/17 03:22:22;;;;;;;32.53;21.95;;;13.60;99.90;;;;;;5096082;28;20050;-71
2023/06/17 03:24:48;;;;;;;33.47;20.73;;;13.60;99.90;;;;;;5114763;28;20039;-71
2023/06/17 03:27:13;;;;;;;32.03;22.08;;;13.60;99.90;;;;;;5079606;28;20127;-72
2023/06/17 03:29:39;;;;;;;38.95;22.05;;;13.70;99.90;;;;;;5046360;28;20047;-71
2023/06/17 03:32:06;;;;;;;38.08;21.73;;;13.70;99.90;;;;;;5096583;28;20087;-71
2023/06/17 03:34:33;;;;;;;34.03;21.27;;;13.70;99.90;;;;;;5134173;27;20130;-71
2023/06/17 03:36:58;;;;;;;;;;;13.80;99.90;;;;;;5117403;27;20346;-71
2023/06/17 03:39:24;;;;;;;35.03;20.70;;;13.90;99.90;;;;;;5134512;27;19923;-72
2023/06/17 03:41:50;;;;;;;35.03;21.02;;;13.90;99.90;;;;;;5116317;27;20107;-71
2023/06/17 03:44:15;;;;;;;39.63;21.92;;;14.00;99.90;;;;;;5116545;27;20068;-69
2023/06/17 03:46:41;;;;;;;39.55;21.13;;;14.00;99.90;;;;;;5135077;27;20042;-72
2023/06/17 03:49:07;;;;;;;40.55;22.52;;;14.10;99.90;;;;;;5134666;27;20039;-72
2023/06/17 03:51:33;;;;;;;43.80;21.00;;;14.20;99.90;;;;;;5115539;27;20058;-72
2023/06/17 03:53:59;;;;;;;39.08;21.35;;;14.20;99.90;;;;;;5116196;27;20292;-71
2023/06/17 03:56:26;;;;;;;41.13;21.33;;;14.30;99.90;;;;;;5098852;27;20042;-71
2023/06/17 03:58:53;;;;;;;56.63;18.58;;;14.40;99.90;;;;;;5134697;27;20082;-72
2023/06/17 04:01:19;;;;;;;24.92;13.40;;;14.40;99.90;;;;;;5115787;27;20047;-72
2023/06/17 04:03:45;;;;;;;59.67;15.48;;;14.30;99.90;;;;;;5116290;27;20047;-72
2023/06/17 04:06:11;;;;;;;39.85;14.65;;;14.40;99.90;;;;;;5134576;27;20120;-72
2023/06/17 04:08:37;;;;;;;51.95;14.18;;;14.40;99.90;;;;;;5115528;27;20047;-73
2023/06/17 04:11:03;;;;;;;81.43;15.25;;;14.40;99.90;;;;;;5116430;27;20051;-71
2023/06/17 04:13:28;;;;;;;75.68;16.33;;;14.40;99.90;;;;;;5098984;27;20043;-73
2023/06/17 04:15:55;;;;;;;41.30;15.38;;;14.30;99.90;;;;;;5115958;27;20043;-72
2023/06/17 04:18:20;;;;;;;65.13;15.48;;;14.30;99.90;;;;;;5115950;27;20045;-72
2023/06/17 04:20:46;;;;;;;57.15;15.23;;;14.30;99.90;;;;;;5134679;27;20088;-71
2023/06/17 04:23:12;;;;;;;53.20;16.05;;;14.30;99.90;;;;;;5116310;27;20042;-73
2023/06/17 04:25:38;;;;;;;50.13;16.95;;;14.30;99.90;;;;;;5115322;27;20050;-72
2023/06/17 04:28:07;;;;;;;52.83;18.80;;;14.40;99.90;;;;;;5134224;27;20129;-72
2023/06/17 04:30:33;;;;;;;38.83;16.55;;;14.40;99.90;;;;;;5133687;27;20089;-72
2023/06/17 04:33:00;;;;;;;51.10;17.48;;;14.40;99.90;;;;;;5082116;27;20046;-72
2023/06/17 04:35:29;;;;;;;37.50;14.68;;;14.50;99.90;;;;;;5115126;27;20506;-72
2023/06/17 04:37:55;;;;;;;52.65;15.88;;;14.50;99.90;;;;;;5133776;27;20039;-71
2023/06/17 04:40:22;;;;;;;81.55;16.27;;;14.50;99.90;;;;;;5133479;27;20117;-74
2023/06/17 04:42:48;;;;;;;37.70;15.23;;;14.60;99.90;;;;;;5115253;27;20541;-71
2023/06/17 04:45:16;;;;;;;40.15;14.73;;;14.60;99.90;;;;;;5115064;27;20047;-70
2023/06/17 04:47:43;;;;;;;30.55;13.70;;;14.70;99.90;;;;;;5133356;27;20054;-71
2023/06/17 04:50:09;;;;;;;30.27;14.43;;;14.70;99.90;;;;;;5115318;27;20050;-70
2023/06/17 04:52:36;;;;;;;68.43;15.45;;;14.70;99.90;;;;;;5133383;27;20107;-71
2023/06/17 04:55:03;;;;;;;66.20;14.15;;;14.60;99.90;;;;;;5127968;27;20055;-71
2023/06/17 04:57:28;;;;;;;42.45;13.93;;;14.60;99.90;;;;;;5120114;27;20054;-71
2023/06/17 04:59:55;;;;;;;40.08;13.38;;;14.60;99.90;;;;;;5133411;28;20506;-72
2023/06/17 05:02:20;;;;;;;32.03;14.27;;;14.50;99.90;;;;;;5133709;28;20122;-71
2023/06/17 05:04:46;;;;;;;37.40;14.95;;;14.60;99.90;;;;;;5114764;28;20114;-72
2023/06/17 05:07:12;;;;;;;54.38;13.35;;;14.70;99.90;;;;;;5115474;28;20487;-71
2023/06/17 05:09:37;;;;;;;49.58;14.05;;;14.70;99.90;;;;;;5098190;28;20044;-71
2023/06/17 05:12:03;;;;;;;80.97;15.43;;;14.80;99.90;;;;;;5133592;28;20039;-71
2023/06/17 05:14:29;;;;;;;62.28;14.93;;;14.70;99.90;;;;;;5114710;28;20051;-71
2023/06/17 05:16:55;;;;;;;48.88;15.38;;;14.70;99.90;;;;;;5133511;28;20058;-71
2023/06/17 05:19:21;;;;;;;50.22;14.88;;;14.80;99.90;;;;;;5098238;28;20084;-71
2023/06/17 05:21:47;;;;;;;42.95;15.90;;;14.80;99.90;;;;;;5114732;28;20035;-71
2023/06/17 05:24:12;;;;;;;42.65;15.77;;;14.90;99.90;;;;;;5133711;28;20050;-70
2023/06/17 05:26:38;;;;;;;33.03;14.65;;;15.00;99.90;;;;;;5098196;28;20066;-71
2023/06/17 05:29:04;;;;;;;33.25;16.20;;;15.10;99.90;;;;;;5115542;28;20043;-70
2023/06/17 05:31:30;;;;;;;32.78;15.38;;;15.20;99.90;;;;;;5115527;28;20039;-72
2023/06/17 05:33:55;;;;;;;33.72;16.45;;;15.30;99.90;;;;;;5115116;28;20059;-70
2023/06/17 05:36:21;;;;;;;32.45;16.50;;;15.40;99.90;;;;;;5081367;28;20046;-72
2023/06/17 05:38:47;;;;;;;29.85;15.15;;;15.50;99.90;;;;;;5097937;28;20089;-70
2023/06/17 05:41:12;;;;;;;30.17;16.08;;;15.60;99.90;;;;;;5113559;28;20134;-72
2023/06/17 05:43:38;;;;;;;30.00;15.35;;;15.70;99.90;;;;;;5095786;28;20047;-72
2023/06/17 05:46:04;;;;;;;35.08;16.60;;;15.80;99.90;;;;;;5133820;28;20047;-70
2023/06/17 05:48:30;;;;;;;31.33;15.93;;;15.90;99.90;;;;;;5134046;28;20095;-71
2023/06/17 05:50:56;;;;;;;33.67;17.40;;;16.00;99.90;;;;;;5119029;28;20095;-70
2023/06/17 05:53:21;;;;;;;33.92;16.60;;;16.10;99.90;;;;;;5122278;28;20049;-71
2023/06/17 05:55:47;;;;;;;29.48;16.25;;;16.10;99.90;;;;;;5109629;28;20156;-70
2023/06/17 05:58:13;;;;;;;29.53;16.77;;;16.20;99.90;;;;;;5121009;28;20051;-70
2023/06/17 06:00:39;;;;;;;32.28;16.52;;;16.20;99.90;;;;;;5116883;28;20047;-73
2023/06/17 06:03:04;;;;;;;31.48;16.58;;;16.30;99.90;;;;;;5098337;28;20039;-71
2023/06/17 06:05:31;;;;;;;33.35;17.83;;;16.30;99.90;;;;;;5103014;27;20050;-72
2023/06/17 06:07:57;;;;;;;28.90;15.38;;;16.40;99.90;;;;;;5119083;27;20122;-72
2023/06/17 06:10:22;;;;;;;32.15;17.92;;;16.30;99.90;;;;;;5118814;27;20142;-71
2023/06/17 06:12:50;;;;;;;30.25;15.50;;;16.20;99.90;;;;;;5101342;27;20116;-72
2023/06/17 06:15:16;;;;;;;29.73;15.88;;;16.20;99.90;;;;;;5119190;27;20079;-71
2023/06/17 06:17:42;;;;;;;34.63;16.77;;;16.40;99.90;;;;;;5118858;27;20039;-71
2023/06/17 06:20:08;;;;;;;30.35;17.08;;;16.60;99.90;;;;;;5137716;27;20055;-68
2023/06/17 06:22:34;;;;;;;27.30;15.82;;;16.70;99.90;;;;;;5103355;27;20122;-72
2023/06/17 06:24:59;;;;;;;30.70;17.15;;;16.60;99.90;;;;;;5139683;27;20051;-70
2023/06/17 06:27:25;;;;;;;30.00;16.40;;;16.70;99.90;;;;;;5120345;27;20039;-71
2023/06/17 06:29:51;;;;;;;27.55;16.10;;;16.90;99.90;;;;;;5137278;27;20055;-72
2023/06/17 06:32:16;;;;;;;25.83;14.98;;;16.90;99.90;;;;;;5136680;27;20097;-73
2023/06/17 06:34:42;;;;;;;22.83;15.30;;;16.90;99.90;;;;;;5117383;27;20097;-71
2023/06/17 06:37:08;;;;;;;29.73;16.73;;;;;;;;;;5117712;27;20436;-72
2023/06/17 06:39:34;;;;;;;28.90;15.87;;;17.10;99.90;;;;;;5136288;27;20122;-72
2023/06/17 06:42:00;;;;;;;24.55;15.23;;;17.10;99.90;;;;;;5117287;27;20728;-72
2023/06/17 06:44:26;;;;;;;26.42;15.63;;;17.20;99.90;;;;;;5117769;27;20043;-71
2023/06/17 06:46:53;;;;;;;27.60;16.38;;;17.10;99.90;;;;;;5135866;27;20107;-70
2023/06/17 06:49:21;;;;;;;25.02;15.85;;;17.20;99.90;;;;;;5135794;27;20055;-72
2023/06/17 06:51:48;;;;;;;25.00;15.05;;;17.10;99.90;;;;;;5117447;27;20094;-70
2023/06/17 06:54:13;;;;;;;24.08;15.07;;;17.40;99.90;;;;;;5136184;27;20048;-72
2023/06/17 06:56:39;;;;;;;26.47;15.37;;;17.30;99.90;;;;;;5120011;27;20443;-72
2023/06/17 06:59:05;;;;;;;24.95;15.85;;;17.40;99.90;;;;;;5117540;27;20083;-70
2023/06/17 07:01:31;;;;;;;26.63;15.30;;;17.50;99.90;;;;;;5100246;27;20126;-71
2023/06/17 07:03:57;;;;;;;25.90;15.63;;;17.30;99.90;;;;;;5099119;27;20129;-70
2023/06/17 07:06:22;;;;;;;25.50;15.63;;;17.30;99.90;;;;;;5134676;27;20124;-71
2023/06/17 07:08:48;;;;;;;27.20;16.10;;;17.20;99.90;;;;;;5116634;27;20051;-71
2023/06/17 07:11:14;;;;;;;24.57;14.87;;;17.30;99.90;;;;;;5117273;27;20082;-72
2023/06/17 07:13:41;;;;;;;24.30;15.95;;;17.40;99.90;;;;;;5134812;27;20043;-74
2023/06/17 07:16:07;;;;;;;21.35;14.05;;;17.30;99.90;;;;;;5117419;27;20050;-70
2023/06/17 07:18:32;;;;;;;28.73;16.13;;;17.60;99.90;;;;;;5117361;27;20039;-71
2023/06/17 07:20:58;;;;;;;25.40;15.97;;;17.80;99.90;;;;;;5082935;27;20490;-70
2023/06/17 07:23:24;;;;;;;26.20;16.52;;;17.60;99.90;;;;;;5100059;27;20035;-70
2023/06/17 07:25:50;;;;;;;29.07;15.20;;;17.90;99.90;;;;;;5116640;27;20448;-69
2023/06/17 07:28:16;;;;;;;24.07;15.10;;;18.30;99.90;;;;;;5135456;27;20536;-70
2023/06/17 07:30:42;;;;;;;25.67;15.90;;;;;;;;;;5099804;27;20051;-71
2023/06/17 07:33:08;;;;;;;24.42;15.35;;;18.00;99.90;;;;;;5134962;27;20047;-72
2023/06/17 07:35:33;;;;;;;22.77;14.83;;;17.90;99.90;;;;;;5134597;27;20377;-69
2023/06/17 07:37:59;;;;;;;26.77;15.57;;;17.70;99.90;;;;;;5116500;27;20046;-69
2023/06/17 07:40:25;;;;;;;22.10;14.17;;;17.40;99.90;;;;;;5116657;27;20047;-70
2023/06/17 07:42:51;;;;;;;22.80;15.17;;;17.60;99.90;;;;;;5134347;27;20176;-72
2023/06/17 07:45:17;;;;;;;24.63;16.33;;;17.60;99.90;;;;;;5134814;27;20035;-71
2023/06/17 07:47:43;;;;;;;24.07;14.97;;;17.70;99.90;;;;;;5134293;27;20108;-70
2023/06/17 07:50:09;;;;;;;22.87;15.07;;;17.50;99.90;;;;;;5116193;27;20054;-72
2023/06/17 07:52:35;;;;;;;26.42;15.63;;;17.60;99.90;;;;;;5116664;27;20095;-69
2023/06/17 07:55:05;;;;;;;27.10;16.17;;;17.60;99.90;;;;;;5128375;27;20550;-70
2023/06/17 07:57:31;;;;;;;24.50;14.85;;;17.60;99.90;;;;;;5114138;28;20048;-72
2023/06/17 07:59:57;;;;;;;23.33;16.13;;;17.70;99.90;;;;;;5121463;27;20406;-72
2023/06/17 08:02:23;;;;;;;21.52;14.90;;;17.80;99.90;;;;;;5134769;27;20119;-70
2023/06/17 08:04:49;;;;;;;24.73;14.17;;;18.00;99.90;;;;;;5133960;27;20526;-70
2023/06/17 08:07:15;;;;;;;24.50;14.75;;;18.10;99.90;;;;;;5116075;27;20062;-72
2023/06/17 08:09:41;;;;;;;23.00;14.50;;;18.20;99.90;;;;;;5099293;27;20475;-71
2023/06/17 08:12:07;;;;;;;24.63;14.20;;;18.30;99.90;;;;;;5115672;27;20054;-72
2023/06/17 08:14:33;;;;;;;25.65;14.57;;;18.40;99.90;;;;;;5115720;27;20452;-70
2023/06/17 08:16:59;;;;;;;24.37;15.00;;;18.50;99.90;;;;;;5098657;27;20046;-71
2023/06/17 08:19:25;;;;;;;23.47;14.43;;;18.40;99.90;;;;;;5133492;27;20047;-71
2023/06/17 08:21:51;;;;;;;20.67;14.10;;;18.50;99.90;;;;;;5115338;27;20047;-70
2023/06/17 08:24:24;;;;;;;24.40;15.30;;;18.60;99.90;;;;;;5134170;27;20042;-72
2023/06/17 08:26:51;;;;;;;23.90;15.10;;;18.80;99.90;;;;;;5114341;27;20051;-78
2023/06/17 08:29:18;;;;;;;22.38;15.80;;;18.80;99.90;;;;;;5115141;27;20077;-72
2023/06/17 08:31:50;;;;;;;24.17;15.27;;;18.80;99.90;;;;;;5115956;27;20051;-70
2023/06/17 08:34:16;;;;;;;22.98;14.43;;;18.90;99.90;;;;;;5115765;27;20095;-71
2023/06/17 08:36:43;;;;;;;23.33;14.10;;;18.80;99.90;;;;;;5115805;27;20051;-71
2023/06/17 08:39:09;;;;;;;19.25;13.43;;;19.10;99.90;;;;;;5098285;27;20129;-70
2023/06/17 08:41:43;;;;;;;21.25;14.25;;;19.20;99.90;;;;;;5115592;27;20038;-72
2023/06/17 08:44:11;;;;;;;22.42;14.25;;;19.30;99.90;;;;;;5115135;27;20478;-70
2023/06/17 08:46:38;;;;;;;22.45;14.63;;;19.30;99.90;;;;;;5115667;27;20391;-71
2023/06/17 08:49:04;;;;;;;22.25;13.40;;;19.40;99.90;;;;;;5115388;28;20459;-71
2023/06/17 08:51:30;;;;;;;19.47;12.20;;;19.40;99.90;;;;;;5115629;28;20125;-72
2023/06/17 08:53:57;;;;;;;18.00;12.10;;;19.80;99.90;;;;;;5133385;27;20110;-70
2023/06/17 08:56:23;;;;;;;18.60;11.65;;;19.90;99.90;;;;;;5081196;27;20145;-73
2023/06/17 08:58:54;;;;;;;23.17;12.82;;;20.10;99.90;;;;;;5115688;27;20112;-70
2023/06/17 09:01:21;;;;;;;17.40;12.38;;;20.20;99.90;;;;;;5115609;28;20047;-73
2023/06/17 09:03:50;;;;;;;17.60;11.93;;;20.20;99.90;;;;;;5114649;28;20086;-71
2023/06/17 09:06:20;;;;;;;21.23;13.05;;;20.40;99.90;;;;;;5098070;28;20047;-70
2023/06/17 09:08:46;;;;;;;19.08;12.15;;;20.30;99.90;;;;;;5133493;28;20082;-71
2023/06/17 09:11:12;;;;;;;19.58;12.35;;;20.50;99.90;;;;;;5114832;28;20054;-71
2023/06/17 09:13:38;;;;;;;18.05;11.23;;;20.60;99.90;;;;;;5132543;28;20120;-71
2023/06/17 09:16:04;;;;;;;16.40;10.67;;;20.60;99.90;;;;;;5132704;28;20075;-71
2023/06/17 09:18:34;;;;;;;20.00;11.38;;;20.80;99.90;;;;;;5115450;28;20111;-70
2023/06/17 09:21:02;;;;;;;16.10;10.55;;;21.00;99.90;;;;;;5132996;28;20096;-72
2023/06/17 09:23:28;;;;;;;14.15;10.98;;;21.10;99.90;;;;;;5133283;28;20119;-71
2023/06/17 09:26:02;;;;;;;16.40;10.83;;;21.30;99.90;;;;;;5115275;28;20126;-71
2023/06/17 09:28:28;;;;;;;15.63;11.25;;;21.20;99.90;;;;;;5133592;28;20046;-72
2023/06/17 09:30:57;;;;;;;16.95;11.25;;;21.30;99.90;;;;;;5116997;27;20070;-70
2023/06/17 09:33:27;;;;;;;19.58;10.80;;;21.10;99.90;;;;;;5101887;27;20039;-72
2023/06/17 09:36:08;;;;;;;15.30;10.30;;;21.20;99.90;;;;;;5101895;27;20051;-71
2023/06/17 09:38:37;;;;;;;15.77;11.23;;;21.30;99.90;;;;;;5137577;27;20047;-70
2023/06/17 09:41:03;;;;;;;16.58;9.65;;;21.40;99.90;;;;;;5101652;27;20142;-71
2023/06/17 09:43:30;;;;;;;15.82;9.98;;;21.60;99.90;;;;;;5137356;27;20043;-72
2023/06/17 09:46:01;;;;;;;13.27;9.07;;;21.80;99.90;;;;;;5137362;27;20050;-71
2023/06/17 09:48:37;;;;;;;18.08;10.15;;;21.90;99.90;;;;;;5118892;27;20050;-73
2023/06/17 09:51:09;;;;;;;14.35;9.40;;;22.20;99.90;;;;;;5136858;27;20047;-71
2023/06/17 09:53:36;;;;;;;15.00;9.05;;;22.30;99.90;;;;;;5119001;27;20054;-72
2023/06/17 09:56:01;;;;;;;;;;;22.50;99.90;;;;;;5122845;27;20048;-74
2023/06/17 09:58:31;;;;;;;13.48;8.43;;;22.60;99.90;;;;;;5116589;28;20271;-70
2023/06/17 10:00:57;;;;;;;14.30;8.38;;;22.70;99.90;;;;;;5116163;28;20044;-72
2023/06/17 10:03:24;;;;;;;11.45;7.32;;;22.80;99.90;;;;;;5099908;27;20032;-72
2023/06/17 10:05:55;;;;;;;12.82;8.40;;;22.90;99.90;;;;;;5117266;27;20047;-72
2023/06/17 10:08:22;;;;;;;14.52;8.27;;;22.90;99.90;;;;;;5083147;27;20487;-70
2023/06/17 10:10:49;;;;;;;14.27;8.23;;;22.70;99.90;;;;;;5118481;27;20100;-72
2023/06/17 10:13:19;;;;;;;16.50;8.18;;;22.90;99.90;;;;;;5101268;27;20051;-70
2023/06/17 10:15:46;;;;;;;14.70;8.32;;;22.90;99.90;;;;;;5100636;27;20058;-71
2023/06/17 10:18:13;;;;;;;12.32;8.70;;;22.90;99.90;;;;;;5117657;27;20092;-71
2023/06/17 10:20:40;;;;;;;12.48;7.38;;;22.90;99.90;;;;;;5118438;27;20043;-71
2023/06/17 10:23:06;;;;;;;11.98;8.02;;;23.00;99.90;;;;;;5117810;27;20100;-71
2023/06/17 10:25:33;;;;;;;12.63;7.95;;;23.10;99.90;;;;;;5118253;27;20046;-72
2023/06/17 10:28:00;;;;;;;;;;;23.20;99.90;;;;;;5084963;27;20199;-72
2023/06/17 10:30:27;;;;;;;13.75;7.75;;;23.30;99.90;;;;;;5117589;27;20399;-72
2023/06/17 10:32:58;;;;;;;13.00;8.07;;;23.30;99.90;;;;;;5101026;27;20112;-72
2023/06/17 10:35:35;;;;;;;11.95;7.32;;;23.50;99.90;;;;;;5117761;27;20051;-72
2023/06/17 10:38:01;;;;;;;12.77;8.38;;;23.60;99.90;;;;;;5118157;27;20502;-72
2023/06/17 10:40:29;;;;;;;13.33;8.50;;;23.50;99.90;;;;;;5135903;27;20039;-72
2023/06/17 10:43:16;;;;;;;15.02;7.97;;;23.40;99.90;;;;;;5134925;27;20474;-73
2023/06/17 10:45:48;;;;;;;11.80;7.03;;;23.60;99.90;;;;;;5135879;27;20107;-71
2023/06/17 10:48:23;;;;;;;10.68;7.30;;;23.70;99.90;;;;;;5117578;27;20134;-73
2023/06/17 10:50:57;;;;;;;11.60;7.07;;;23.90;99.90;;;;;;5135920;27;20047;-72
2023/06/17 10:53:32;;;;;;;10.07;6.70;;;24.00;99.90;;;;;;5117203;27;20506;-71
2023/06/17 10:56:03;;;;;;;11.43;6.15;;;24.10;99.90;;;;;;5117551;27;20143;-72
2023/06/17 10:58:37;;;;;;;12.32;7.13;;;24.20;99.90;;;;;;5135367;27;20759;-71
2023/06/17 11:01:08;;;;;;;9.32;6.00;;;24.30;99.90;;;;;;5135856;27;20054;-70
2023/06/17 11:03:34;;;;;;;11.65;6.13;;;24.30;99.90;;;;;;5099067;27;20043;-72
2023/06/17 11:06:02;;;;;;;10.48;6.90;;;24.30;99.90;;;;;;5135985;27;20071;-71
2023/06/17 11:08:30;;;;;;;12.18;6.07;;;24.10;99.90;;;;;;5117186;27;20054;-69
2023/06/17 11:11:14;;;;;;;11.63;5.93;;;24.20;99.90;;;;;;5117361;27;20108;-72
2023/06/17 11:13:42;;;;;;;11.25;6.72;;;24.40;99.90;;;;;;5097335;28;20042;-76
2023/06/17 11:16:09;;;;;;;11.20;6.43;;;24.60;99.90;;;;;;5115263;28;20185;-73
2023/06/17 11:18:35;;;;;;;;;;;24.80;99.90;;;;;;5096973;28;20051;-72
2023/06/17 11:21:03;;;;;;;11.00;6.45;;;24.90;99.90;;;;;;5080058;28;20045;-72
2023/06/17 11:23:28;;;;;;;11.15;6.00;;;24.90;99.90;;;;;;5096559;28;20039;-72
2023/06/17 11:25:54;;;;;;;10.80;6.00;;;24.90;99.90;;;;;;5114599;28;20071;-71
2023/06/17 11:28:21;;;;;;;9.07;5.93;;;25.10;99.90;;;;;;5116114;27;20289;-73
2023/06/17 11:30:48;;;;;;;9.35;5.80;;;25.20;99.90;;;;;;5135234;27;20044;-73
2023/06/17 11:33:14;;;;;;;8.90;5.68;;;25.20;99.90;;;;;;5100319;27;20105;-77
2023/06/17 11:35:42;;;;;;;10.75;5.50;;;25.30;99.90;;;;;;5135663;27;20046;-79
2023/06/17 11:38:08;;;;;;;9.55;5.40;;;25.30;99.90;;;;;;5117627;27;20134;-71
2023/06/17 11:40:33;;;;;;;7.63;5.50;;;25.10;99.20;;;;;;5135340;27;20281;-75
2023/06/17 11:43:00;;;;;;;8.50;5.50;;;24.90;98.10;;;;;;5135601;27;20111;-74
2023/06/17 11:45:27;;;;;;;;;;;25.20;98.80;;;;;;5116968;27;20289;-72
2023/06/17 11:47:53;;;;;;;7.82;5.38;;;25.20;98.70;;;;;;5116958;27;20367;-72
2023/06/17 11:50:19;;;;;;;10.20;5.70;;;25.40;99.60;;;;;;5099636;27;20054;-71
2023/06/17 11:52:56;;;;;;;8.30;5.68;;;25.50;99.30;;;;;;5116405;27;20629;-72
2023/06/17 11:55:32;;;;;;;8.63;5.82;;;25.50;98.50;;;;;;5115879;27;20462;-73
2023/06/17 11:58:02;;;;;;;13.13;6.22;;;25.40;97.90;;;;;;5116249;27;20087;-73
2023/06/17 12:00:29;;;;;;;10.15;5.50;;;25.30;97.20;;;;;;5116287;27;20055;-69
2023/06/17 12:02:58;;;;;;;9.18;5.50;;;25.50;98.00;;;;;;5099069;27;20175;-72
2023/06/17 12:05:28;;;;;;;11.43;5.43;;;25.50;97.10;;;;;;5081700;27;20039;-74
2023/06/17 12:07:58;;;;;;;8.55;5.03;;;25.70;97.90;;;;;;5134357;27;20039;-71
2023/06/17 12:10:23;;;;;;;10.02;5.20;;;26.00;98.20;;;;;;5133877;27;20031;-70
2023/06/17 12:12:49;;;;;;;9.18;5.65;;;26.10;98.20;;;;;;5099513;27;20471;-71
2023/06/17 12:15:15;;;;;;;9.88;5.82;;;26.30;97.70;;;;;;5099848;27;20045;-73
2023/06/17 12:17:42;;;;;;;9.60;5.88;;;26.20;97.10;;;;;;5134045;27;20082;-71
2023/06/17 12:20:15;;;;;;;9.07;5.65;;;26.20;95.40;;;;;;5116071;27;20479;-71
2023/06/17 12:22:44;;;;;;;8.73;5.30;;;26.10;93.70;;;;;;5133777;27;20068;-73
2023/06/17 12:25:13;;;;;;;8.07;5.63;;;26.10;94.40;;;;;;5098261;27;20049;-73
2023/06/17 12:27:43;;;;;;;8.50;5.28;;;26.20;94.80;;;;;;5115362;27;20096;-73
2023/06/17 12:30:10;;;;;;;10.10;5.40;;;26.30;92.60;;;;;;5098882;27;20061;-73
2023/06/17 12:32:37;;;;;;;9.35;4.93;;;26.40;94.00;;;;;;5115117;27;20483;-73